sensor_id;sensor_type;location;lat;lon;timestamp;pressure;altitude;pressure_sealevel;temperature;humidity
51287;BME280;37364;46.974;18.916;2023-02-15T00:01:59;149942.38;;;-1.65;100.00
51287;BME280;37364;46.974;18.916;2023-02-15T00:04:32;149942.38;;;-1.65;100.00
51287;BME280;37364;46.974;18.916;2023-02-15T00:07:17;149933.44;;;-1.68;100.00
51287;BME280;37364;46.974;18.916;2023-02-15T00:09:48;149919.31;;;-1.74;100.00
51287;BME280;37364;46.974;18.916;2023-02-15T00:12:19;149921.84;;;-1.73;100.00
51287;BME280;37364;46.974;18.916;2023-02-15T00:14:49;149911.59;;;-1.77;100.00
51287;BME280;37364;46.974;18.916;2023-02-15T00:17:20;149910.31;;;-1.77;100.00
51287;BME280;37364;46.974;18.916;2023-02-15T00:19:53;149911.59;;;-1.77;100.00
51287;BME280;37364;46.974;18.916;2023-02-15T00:22:25;149905.19;;;-1.80;100.00
51287;BME280;37364;46.974;18.916;2023-02-15T00:24:56;149891.09;;;-1.85;100.00
51287;BME280;37364;46.974;18.916;2023-02-15T00:27:26;149883.38;;;-1.88;100.00
51287;BME280;37364;46.974;18.916;2023-02-15T00:29:56;149878.25;;;-1.90;100.00
51287;BME280;37364;46.974;18.916;2023-02-15T00:32:27;149878.25;;;-1.90;100.00
51287;BME280;37364;46.974;18.916;2023-02-15T00:35:01;149876.97;;;-1.91;100.00
51287;BME280;37364;46.974;18.916;2023-02-15T00:37:33;149883.38;;;-1.88;100.00
51287;BME280;37364;46.974;18.916;2023-02-15T00:40:05;149878.25;;;-1.90;100.00
51287;BME280;37364;46.974;18.916;2023-02-15T00:42:36;149866.72;;;-1.95;100.00
51287;BME280;37364;46.974;18.916;2023-02-15T00:45:08;149865.44;;;-1.95;100.00
51287;BME280;37364;46.974;18.916;2023-02-15T00:47:41;149856.47;;;-1.99;100.00
51287;BME280;37364;46.974;18.916;2023-02-15T00:50:15;149852.63;;;-2.01;100.00
51287;BME280;37364;46.974;18.916;2023-02-15T00:52:49;149844.94;;;-2.04;100.00
51287;BME280;37364;46.974;18.916;2023-02-15T00:55:20;149839.81;;;-2.06;100.00
51287;BME280;37364;46.974;18.916;2023-02-15T00:57:50;149829.53;;;-2.10;100.00
51287;BME280;37364;46.974;18.916;2023-02-15T01:00:20;149826.97;;;-2.11;100.00
51287;BME280;37364;46.974;18.916;2023-02-15T01:02:51;149824.41;;;-2.12;100.00
51287;BME280;37364;46.974;18.916;2023-02-15T01:05:28;149824.41;;;-2.12;100.00
51287;BME280;37364;46.974;18.916;2023-02-15T01:08:00;149830.84;;;-2.09;100.00
51287;BME280;37364;46.974;18.916;2023-02-15T01:10:30;149833.38;;;-2.08;100.00
51287;BME280;37364;46.974;18.916;2023-02-15T01:13:01;149834.69;;;-2.08;100.00
51287;BME280;37364;46.974;18.916;2023-02-15T01:15:34;149830.84;;;-2.09;100.00
51287;BME280;37364;46.974;18.916;2023-02-15T01:18:09;149819.28;;;-2.14;100.00
51287;BME280;37364;46.974;18.916;2023-02-15T01:20:43;149828.25;;;-2.10;100.00
51287;BME280;37364;46.974;18.916;2023-02-15T01:23:15;149838.50;;;-2.06;100.00
51287;BME280;37364;46.974;18.916;2023-02-15T01:25:46;149837.22;;;-2.07;100.00
51287;BME280;37364;46.974;18.916;2023-02-15T01:28:16;149837.22;;;-2.07;100.00
51287;BME280;37364;46.974;18.916;2023-02-15T01:30:46;149843.63;;;-2.04;100.00
51287;BME280;37364;46.974;18.916;2023-02-15T01:33:17;149856.47;;;-1.99;100.00
51287;BME280;37364;46.974;18.916;2023-02-15T01:35:56;149853.88;;;-2.00;100.00
51287;BME280;37364;46.974;18.916;2023-02-15T01:38:27;149852.63;;;-2.01;100.00
51287;BME280;37364;46.974;18.916;2023-02-15T01:46:50;149835.97;;;-2.07;100.00
51287;BME280;37364;46.974;18.916;2023-02-15T01:49:23;149830.84;;;-2.09;100.00
51287;BME280;37364;46.974;18.916;2023-02-15T01:52:00;149814.13;;;-2.16;100.00
51287;BME280;37364;46.974;18.916;2023-02-15T01:54:32;149800.03;;;-2.22;100.00
51287;BME280;37364;46.974;18.916;2023-02-15T01:57:07;149789.78;;;-2.26;100.00
51287;BME280;37364;46.974;18.916;2023-02-15T01:59:42;149793.63;;;-2.24;100.00
51287;BME280;37364;46.974;18.916;2023-02-15T02:02:17;149784.66;;;-2.28;100.00
51287;BME280;37364;46.974;18.916;2023-02-15T02:04:54;149788.50;;;-2.26;100.00
51287;BME280;37364;46.974;18.916;2023-02-15T02:07:33;149780.84;;;-2.29;100.00
51287;BME280;37364;46.974;18.916;2023-02-15T02:10:06;149778.25;;;-2.30;100.00
51287;BME280;37364;46.974;18.916;2023-02-15T02:12:38;149788.50;;;-2.26;100.00
51287;BME280;37364;46.974;18.916;2023-02-15T02:15:09;149793.63;;;-2.24;100.00
51287;BME280;37364;46.974;18.916;2023-02-15T02:17:52;149784.66;;;-2.28;100.00
51287;BME280;37364;46.974;18.916;2023-02-15T02:20:54;149800.03;;;-2.22;100.00
51287;BME280;37364;46.974;18.916;2023-02-15T02:23:52;149800.03;;;-2.22;100.00
51287;BME280;37364;46.974;18.916;2023-02-15T02:26:58;149803.88;;;-2.20;100.00
51287;BME280;37364;46.974;18.916;2023-02-15T02:35:46;149782.13;;;-2.29;100.00
51287;BME280;37364;46.974;18.916;2023-02-15T02:38:24;149770.56;;;-2.33;100.00
51287;BME280;37364;46.974;18.916;2023-02-15T02:41:06;149773.13;;;-2.32;100.00
51287;BME280;37364;46.974;18.916;2023-02-15T02:43:42;149780.84;;;-2.29;100.00
51287;BME280;37364;46.974;18.916;2023-02-15T02:46:21;149765.41;;;-2.35;100.00
51287;BME280;37364;46.974;18.916;2023-02-15T02:48:54;149753.91;;;-2.40;100.00
51287;BME280;37364;46.974;18.916;2023-02-15T02:51:32;149747.50;;;-2.43;100.00
51287;BME280;37364;46.974;18.916;2023-02-15T02:54:05;149737.25;;;-2.47;100.00
51287;BME280;37364;46.974;18.916;2023-02-15T02:56:41;149733.41;;;-2.48;100.00
51287;BME280;37364;46.974;18.916;2023-02-15T02:59:17;149730.81;;;-2.49;100.00
51287;BME280;37364;46.974;18.916;2023-02-15T03:01:51;149730.81;;;-2.49;100.00
51287;BME280;37364;46.974;18.916;2023-02-15T03:04:29;149720.56;;;-2.53;100.00
51287;BME280;37364;46.974;18.916;2023-02-15T03:07:06;149721.84;;;-2.53;100.00
51287;BME280;37364;46.974;18.916;2023-02-15T03:09:39;149723.16;;;-2.52;100.00
51287;BME280;37364;46.974;18.916;2023-02-15T03:12:18;149729.56;;;-2.50;100.00
51287;BME280;37364;46.974;18.916;2023-02-15T03:14:53;149725.69;;;-2.51;100.00
51287;BME280;37364;46.974;18.916;2023-02-15T03:17:26;149715.44;;;-2.55;100.00
51287;BME280;37364;46.974;18.916;2023-02-15T03:20:01;149714.19;;;-2.56;100.00
51287;BME280;37364;46.974;18.916;2023-02-15T03:22:40;149703.94;;;-2.60;100.00
51287;BME280;37364;46.974;18.916;2023-02-15T03:25:16;149701.34;;;-2.61;100.00
51287;BME280;37364;46.974;18.916;2023-02-15T03:27:52;149719.31;;;-2.54;100.00
51287;BME280;37364;46.974;18.916;2023-02-15T03:30:25;149705.19;;;-2.60;100.00
51287;BME280;37364;46.974;18.916;2023-02-15T03:32:59;149698.81;;;-2.62;100.00
51287;BME280;37364;46.974;18.916;2023-02-15T03:35:35;149692.38;;;-2.65;100.00
51287;BME280;37364;46.974;18.916;2023-02-15T03:38:13;149687.25;;;-2.67;100.00
51287;BME280;37364;46.974;18.916;2023-02-15T03:40:48;149679.59;;;-2.70;100.00
51287;BME280;37364;46.974;18.916;2023-02-15T03:43:38;149668.03;;;-2.74;100.00
51287;BME280;37364;46.974;18.916;2023-02-15T03:46:16;149659.09;;;-2.78;100.00
51287;BME280;37364;46.974;18.916;2023-02-15T03:48:52;149650.09;;;-2.82;100.00
51287;BME280;37364;46.974;18.916;2023-02-15T03:51:27;149647.53;;;-2.83;100.00
51287;BME280;37364;46.974;18.916;2023-02-15T03:54:10;149642.41;;;-2.85;100.00
51287;BME280;37364;46.974;18.916;2023-02-15T03:57:02;149632.16;;;-2.89;100.00
51287;BME280;37364;46.974;18.916;2023-02-15T03:59:47;149629.63;;;-2.90;100.00
51287;BME280;37364;46.974;18.916;2023-02-15T04:02:41;149620.63;;;-2.93;100.00
51287;BME280;37364;46.974;18.916;2023-02-15T04:05:15;149610.41;;;-2.97;100.00
51287;BME280;37364;46.974;18.916;2023-02-15T04:07:46;149611.66;;;-2.97;100.00
51287;BME280;37364;46.974;18.916;2023-02-15T04:10:19;149610.41;;;-2.97;100.00
51287;BME280;37364;46.974;18.916;2023-02-15T04:13:02;149605.28;;;-3.00;100.00
51287;BME280;37364;46.974;18.916;2023-02-15T04:15:33;149603.97;;;-3.00;100.00
51287;BME280;37364;46.974;18.916;2023-02-15T04:18:15;149616.78;;;-2.95;100.00
51287;BME280;37364;46.974;18.916;2023-02-15T04:20:46;149618.06;;;-2.94;100.00
51287;BME280;37364;46.974;18.916;2023-02-15T04:23:29;149612.94;;;-2.96;100.00
51287;BME280;37364;46.974;18.916;2023-02-15T04:26:15;149615.53;;;-2.95;100.00
51287;BME280;37364;46.974;18.916;2023-02-15T04:28:46;149605.28;;;-3.00;100.00
51287;BME280;37364;46.974;18.916;2023-02-15T04:31:16;149595.03;;;-3.04;100.00
51287;BME280;37364;46.974;18.916;2023-02-15T04:33:47;149601.41;;;-3.01;100.00
51287;BME280;37364;46.974;18.916;2023-02-15T04:36:17;149598.84;;;-3.02;100.00
51287;BME280;37364;46.974;18.916;2023-02-15T04:38:48;149593.72;;;-3.04;100.00
51287;BME280;37364;46.974;18.916;2023-02-15T04:41:21;149577.06;;;-3.11;100.00
51287;BME280;37364;46.974;18.916;2023-02-15T04:43:52;149565.56;;;-3.15;100.00
51287;BME280;37364;46.974;18.916;2023-02-15T04:46:22;149566.84;;;-3.15;100.00
51287;BME280;37364;46.974;18.916;2023-02-15T04:48:53;149557.88;;;-3.19;100.00
51287;BME280;37364;46.974;18.916;2023-02-15T04:51:24;149554.00;;;-3.20;100.00
51287;BME280;37364;46.974;18.916;2023-02-15T04:53:59;149543.75;;;-3.24;100.00
51287;BME280;37364;46.974;18.916;2023-02-15T04:56:33;149536.09;;;-3.27;100.00
51287;BME280;37364;46.974;18.916;2023-02-15T04:59:05;149532.25;;;-3.29;100.00
51287;BME280;37364;46.974;18.916;2023-02-15T05:01:35;149530.94;;;-3.29;100.00
51287;BME280;37364;46.974;18.916;2023-02-15T05:04:06;149528.41;;;-3.30;100.00
51287;BME280;37364;46.974;18.916;2023-02-15T05:06:36;149525.81;;;-3.31;100.00
51287;BME280;37364;46.974;18.916;2023-02-15T05:09:07;149527.13;;;-3.31;100.00
51287;BME280;37364;46.974;18.916;2023-02-15T05:11:41;149515.56;;;-3.35;100.00
51287;BME280;37364;46.974;18.916;2023-02-15T05:14:11;149511.78;;;-3.37;100.00
51287;BME280;37364;46.974;18.916;2023-02-15T05:16:43;149510.44;;;-3.38;100.00
51287;BME280;37364;46.974;18.916;2023-02-15T05:19:13;149501.47;;;-3.41;100.00
51287;BME280;37364;46.974;18.916;2023-02-15T05:21:43;149496.34;;;-3.43;100.00
51287;BME280;37364;46.974;18.916;2023-02-15T05:24:14;149493.81;;;-3.44;100.00
51287;BME280;37364;46.974;18.916;2023-02-15T05:27:00;149493.81;;;-3.44;100.00
51287;BME280;37364;46.974;18.916;2023-02-15T05:29:43;149489.97;;;-3.46;100.00
51287;BME280;37364;46.974;18.916;2023-02-15T05:32:14;149474.59;;;-3.52;100.00
51287;BME280;37364;46.974;18.916;2023-02-15T05:34:44;149474.59;;;-3.52;100.00
51287;BME280;37364;46.974;18.916;2023-02-15T05:37:15;149470.75;;;-3.53;100.00
51287;BME280;37364;46.974;18.916;2023-02-15T05:39:45;149470.75;;;-3.53;100.00
51287;BME280;37364;46.974;18.916;2023-02-15T05:42:18;149463.09;;;-3.56;100.00
51287;BME280;37364;46.974;18.916;2023-02-15T05:44:49;149460.53;;;-3.58;100.00
51287;BME280;37364;46.974;18.916;2023-02-15T05:47:20;149456.66;;;-3.59;100.00
51287;BME280;37364;46.974;18.916;2023-02-15T05:49:50;149457.97;;;-3.59;100.00
51287;BME280;37364;46.974;18.916;2023-02-15T05:52:21;149455.41;;;-3.60;100.00
51287;BME280;37364;46.974;18.916;2023-02-15T05:54:51;149459.25;;;-3.58;100.00
51287;BME280;37364;46.974;18.916;2023-02-15T05:57:24;149464.38;;;-3.56;100.00
51287;BME280;37364;46.974;18.916;2023-02-15T05:59:55;149464.38;;;-3.56;100.00
51287;BME280;37364;46.974;18.916;2023-02-15T06:02:26;149465.63;;;-3.55;100.00
51287;BME280;37364;46.974;18.916;2023-02-15T06:04:57;149475.88;;;-3.51;100.00
51287;BME280;37364;46.974;18.916;2023-02-15T06:07:30;149487.44;;;-3.47;100.00
51287;BME280;37364;46.974;18.916;2023-02-15T06:10:01;149493.81;;;-3.44;100.00
51287;BME280;37364;46.974;18.916;2023-02-15T06:12:34;149500.22;;;-3.42;100.00
51287;BME280;37364;46.974;18.916;2023-02-15T06:15:06;149496.34;;;-3.43;100.00
51287;BME280;37364;46.974;18.916;2023-02-15T06:17:36;149509.19;;;-3.38;100.00
51287;BME280;37364;46.974;18.916;2023-02-15T06:20:08;149519.44;;;-3.34;100.00
51287;BME280;37364;46.974;18.916;2023-02-15T06:22:39;149523.28;;;-3.32;100.00
51287;BME280;37364;46.974;18.916;2023-02-15T06:25:09;149539.91;;;-3.26;100.00
51287;BME280;37364;46.974;18.916;2023-02-15T06:27:43;149555.28;;;-3.20;100.00
51287;BME280;37364;46.974;18.916;2023-02-15T06:30:14;149557.88;;;-3.19;100.00
51287;BME280;37364;46.974;18.916;2023-02-15T06:32:45;149579.63;;;-3.10;100.00
51287;BME280;37364;46.974;18.916;2023-02-15T06:35:15;149596.28;;;-3.03;100.00
51287;BME280;37364;46.974;18.916;2023-02-15T06:37:46;149620.63;;;-2.93;100.00
51287;BME280;37364;46.974;18.916;2023-02-15T06:40:17;149637.28;;;-2.87;100.00
51287;BME280;37364;46.974;18.916;2023-02-15T06:42:50;149655.22;;;-2.80;100.00
51287;BME280;37364;46.974;18.916;2023-02-15T06:45:21;149682.13;;;-2.69;100.00
51287;BME280;37364;46.974;18.916;2023-02-15T06:47:52;149693.69;;;-2.64;100.00
51287;BME280;37364;46.974;18.916;2023-02-15T06:50:22;149706.47;;;-2.59;100.00
51287;BME280;37364;46.974;18.916;2023-02-15T06:52:56;149734.69;;;-2.48;100.00
51287;BME280;37364;46.974;18.916;2023-02-15T06:55:26;149757.75;;;-2.39;100.00
51287;BME280;37364;46.974;18.916;2023-02-15T06:58:00;149771.88;;;-2.33;100.00
51287;BME280;37364;46.974;18.916;2023-02-15T07:00:30;149800.03;;;-2.22;100.00
51287;BME280;37364;46.974;18.916;2023-02-15T07:03:05;149823.13;;;-2.12;100.00
51287;BME280;37364;46.974;18.916;2023-02-15T07:05:36;149850.06;;;-2.02;100.00
51287;BME280;37364;46.974;18.916;2023-02-15T07:08:07;149878.25;;;-1.90;100.00
51287;BME280;37364;46.974;18.916;2023-02-15T07:10:37;149905.19;;;-1.80;100.00
51287;BME280;37364;46.974;18.916;2023-02-15T07:13:11;149938.56;;;-1.66;100.00
51287;BME280;37364;46.974;18.916;2023-02-15T07:15:38;149965.47;;;-1.55;100.00
51287;BME280;37364;46.974;18.916;2023-02-15T07:18:09;149987.28;;;-1.47;100.00
51287;BME280;37364;46.974;18.916;2023-02-15T07:20:40;150018.06;;;-1.34;100.00
51287;BME280;37364;46.974;18.916;2023-02-15T07:23:11;150046.31;;;-1.23;100.00
51287;BME280;37364;46.974;18.916;2023-02-15T07:25:41;150070.69;;;-1.13;100.00
51287;BME280;37364;46.974;18.916;2023-02-15T07:28:14;150111.75;;;-0.97;100.00
51287;BME280;37364;46.974;18.916;2023-02-15T07:30:45;150123.28;;;-0.92;100.00
51287;BME280;37364;46.974;18.916;2023-02-15T07:33:17;150186.16;;;-0.67;100.00
51287;BME280;37364;46.974;18.916;2023-02-15T07:35:55;150205.44;;;-0.60;100.00
51287;BME280;37364;46.974;18.916;2023-02-15T07:38:30;150250.34;;;-0.42;100.00
51287;BME280;37364;46.974;18.916;2023-02-15T07:41:01;150277.34;;;-0.31;100.00
51287;BME280;37364;46.974;18.916;2023-02-15T07:43:37;150309.41;;;-0.18;100.00
51287;BME280;37364;46.974;18.916;2023-02-15T07:46:09;150337.69;;;-0.07;100.00
51287;BME280;37364;46.974;18.916;2023-02-15T07:48:41;150350.53;;;-0.02;100.00
51287;BME280;37364;46.974;18.916;2023-02-15T07:51:12;150369.81;;;0.06;100.00
51287;BME280;37364;46.974;18.916;2023-02-15T07:53:44;150381.34;;;0.11;100.00
51287;BME280;37364;46.974;18.916;2023-02-15T07:56:15;150445.56;;;0.36;100.00
51287;BME280;37364;46.974;18.916;2023-02-15T07:58:48;150541.97;;;0.75;100.00
51287;BME280;37364;46.974;18.916;2023-02-15T08:01:24;150586.94;;;0.93;100.00
51287;BME280;37364;46.974;18.916;2023-02-15T08:03:55;150625.50;;;1.08;100.00
51287;BME280;37364;46.974;18.916;2023-02-15T08:06:27;150619.03;;;1.06;100.00
51287;BME280;37364;46.974;18.916;2023-02-15T08:08:58;150651.19;;;1.18;100.00
51287;BME280;37364;46.974;18.916;2023-02-15T08:11:30;150646.06;;;1.16;100.00
51287;BME280;37364;46.974;18.916;2023-02-15T08:14:10;150652.47;;;1.19;100.00
51287;BME280;37364;46.974;18.916;2023-02-15T08:16:42;150720.63;;;1.46;100.00
51287;BME280;37364;46.974;18.916;2023-02-15T08:19:15;150729.63;;;1.50;100.00
51287;BME280;37364;46.974;18.916;2023-02-15T08:21:47;150751.47;;;1.58;100.00
51287;BME280;37364;46.974;18.916;2023-02-15T08:24:20;150796.53;;;1.76;100.00
51287;BME280;37364;46.974;18.916;2023-02-15T08:26:51;150828.66;;;1.89;100.00
51287;BME280;37364;46.974;18.916;2023-02-15T08:29:27;150846.69;;;1.96;100.00
51287;BME280;37364;46.974;18.916;2023-02-15T08:31:59;150872.41;;;2.07;100.00
51287;BME280;37364;46.974;18.916;2023-02-15T08:34:32;150886.56;;;2.12;100.00
51287;BME280;37364;46.974;18.916;2023-02-15T08:37:04;150909.72;;;2.22;100.00
51287;BME280;37364;46.974;18.916;2023-02-15T08:39:35;150944.47;;;2.35;100.00
51287;BME280;37364;46.974;18.916;2023-02-15T08:42:05;150950.88;;;2.38;100.00
51287;BME280;37364;46.974;18.916;2023-02-15T08:44:38;150975.34;;;2.48;100.00
51287;BME280;37364;46.974;18.916;2023-02-15T08:47:09;150986.91;;;2.52;100.00
51287;BME280;37364;46.974;18.916;2023-02-15T08:49:40;151026.78;;;2.68;100.00
51287;BME280;37364;46.974;18.916;2023-02-15T08:52:10;151060.25;;;2.82;100.00
51287;BME280;37364;46.974;18.916;2023-02-15T08:54:41;151056.41;;;2.80;100.00
51287;BME280;37364;46.974;18.916;2023-02-15T08:57:12;151073.16;;;2.87;100.00
51287;BME280;37364;46.974;18.916;2023-02-15T08:59:45;151109.19;;;3.01;100.00
51287;BME280;37364;46.974;18.916;2023-02-15T09:02:18;151134.91;;;3.11;100.00
51287;BME280;37364;46.974;18.916;2023-02-15T09:04:48;151129.78;;;3.09;100.00
51287;BME280;37364;46.974;18.916;2023-02-15T09:07:20;151143.94;;;3.15;100.00
51287;BME280;37364;46.974;18.916;2023-02-15T09:09:50;151214.78;;;3.43;100.00
51287;BME280;37364;46.974;18.916;2023-02-15T09:12:21;151199.31;;;3.37;100.00
51287;BME280;37364;46.974;18.916;2023-02-15T09:14:54;151192.88;;;3.34;100.00
51287;BME280;37364;46.974;18.916;2023-02-15T09:17:24;151222.50;;;3.46;100.00
51287;BME280;37364;46.974;18.916;2023-02-15T09:19:55;151210.91;;;3.42;100.00
51287;BME280;37364;46.974;18.916;2023-02-15T09:22:26;151248.25;;;3.56;100.00
51287;BME280;37364;46.974;18.916;2023-02-15T09:24:57;151265.00;;;3.63;100.00
51287;BME280;37364;46.974;18.916;2023-02-15T09:27:29;151295.91;;;3.75;100.00
51287;BME280;37364;46.974;18.916;2023-02-15T09:30:02;151288.22;;;3.72;100.00
51287;BME280;37364;46.974;18.916;2023-02-15T09:32:33;151324.28;;;3.87;100.00
51287;BME280;37364;46.974;18.916;2023-02-15T09:35:04;151324.28;;;3.87;100.00
51287;BME280;37364;46.974;18.916;2023-02-15T09:37:35;151402.88;;;4.18;100.00
51287;BME280;37364;46.974;18.916;2023-02-15T09:40:06;151391.25;;;4.13;100.00
51287;BME280;37364;46.974;18.916;2023-02-15T09:42:55;151436.38;;;4.31;100.00
51287;BME280;37364;46.974;18.916;2023-02-15T09:45:45;151460.88;;;4.41;100.00
51287;BME280;37364;46.974;18.916;2023-02-15T09:48:37;151453.13;;;4.38;100.00
51287;BME280;37364;46.974;18.916;2023-02-15T09:54:26;151499.50;;;4.56;100.00
51287;BME280;37364;46.974;18.916;2023-02-15T09:57:08;151513.69;;;4.62;100.00
51287;BME280;37364;46.974;18.916;2023-02-15T09:59:45;151593.66;;;4.94;100.00
51287;BME280;37364;46.974;18.916;2023-02-15T10:02:35;151597.47;;;4.95;100.00
51287;BME280;37364;46.974;18.916;2023-02-15T10:05:19;151625.84;;;5.07;100.00
51287;BME280;37364;46.974;18.916;2023-02-15T10:08:13;151643.94;;;5.14;100.00
51287;BME280;37364;46.974;18.916;2023-02-15T10:10:59;151677.47;;;5.27;100.00
51287;BME280;37364;46.974;18.916;2023-02-15T10:13:59;151634.88;;;5.10;100.00
51287;BME280;37364;46.974;18.916;2023-02-15T10:16:38;151665.81;;;5.23;100.00
51287;BME280;37364;46.974;18.916;2023-02-15T10:19:19;151637.44;;;5.11;100.00
51287;BME280;37364;46.974;18.916;2023-02-15T10:22:01;151694.22;;;5.34;100.00
51287;BME280;37364;46.974;18.916;2023-02-15T10:24:48;151739.34;;;5.52;100.00
51287;BME280;37364;46.974;18.916;2023-02-15T10:27:22;151700.66;;;5.37;100.00
51287;BME280;37364;46.974;18.916;2023-02-15T10:30:02;151792.25;;;5.73;100.00
51287;BME280;37364;46.974;18.916;2023-02-15T10:32:46;151819.31;;;5.84;100.00
51287;BME280;37364;46.974;18.916;2023-02-15T10:35:33;151833.53;;;5.89;100.00
51287;BME280;37364;46.974;18.916;2023-02-15T10:38:14;151838.69;;;5.91;100.00
51287;BME280;37364;46.974;18.916;2023-02-15T10:40:57;151867.13;;;6.03;100.00
51287;BME280;37364;46.974;18.916;2023-02-15T10:43:49;151869.72;;;6.04;100.00
51287;BME280;37364;46.974;18.916;2023-02-15T10:46:43;151925.22;;;6.26;100.00
51287;BME280;37364;46.974;18.916;2023-02-15T10:49:39;152009.13;;;6.59;100.00
51287;BME280;37364;46.974;18.916;2023-02-15T10:52:25;152010.41;;;6.60;100.00
51287;BME280;37364;46.974;18.916;2023-02-15T10:55:07;151925.22;;;6.26;100.00
51287;BME280;37364;46.974;18.916;2023-02-15T10:57:53;151983.31;;;6.49;100.00
51287;BME280;37364;46.974;18.916;2023-02-15T11:00:35;152001.34;;;6.56;100.00
51287;BME280;37364;46.974;18.916;2023-02-15T11:03:20;152050.41;;;6.76;100.00
51287;BME280;37364;46.974;18.916;2023-02-15T11:06:02;152078.81;;;6.87;100.00
51287;BME280;37364;46.974;18.916;2023-02-15T11:08:40;152047.84;;;6.75;100.00
51287;BME280;37364;46.974;18.916;2023-02-15T11:11:19;152090.44;;;6.91;100.00
51287;BME280;37364;46.974;18.916;2023-02-15T11:13:54;152096.91;;;6.94;100.00
51287;BME280;37364;46.974;18.916;2023-02-15T11:16:29;152090.44;;;6.91;100.00
51287;BME280;37364;46.974;18.916;2023-02-15T11:19:08;152138.22;;;7.10;100.00
51287;BME280;37364;46.974;18.916;2023-02-15T11:21:42;152108.53;;;6.99;100.00
51287;BME280;37364;46.974;18.916;2023-02-15T11:24:17;152189.88;;;7.31;100.00
51287;BME280;37364;46.974;18.916;2023-02-15T11:26:53;152131.78;;;7.08;100.00
51287;BME280;37364;46.974;18.916;2023-02-15T11:29:28;152183.41;;;7.28;100.00
51287;BME280;37364;46.974;18.916;2023-02-15T11:32:17;152157.59;;;7.18;100.00
51287;BME280;37364;46.974;18.916;2023-02-15T11:34:52;152195.03;;;7.33;100.00
51287;BME280;37364;46.974;18.916;2023-02-15T11:37:28;152180.88;;;7.27;100.00
51287;BME280;37364;46.974;18.916;2023-02-15T11:40:15;152147.28;;;7.14;100.00
51287;BME280;37364;46.974;18.916;2023-02-15T11:42:50;152158.88;;;7.19;100.00
51287;BME280;37364;46.974;18.916;2023-02-15T11:45:26;152186.03;;;7.29;100.00
51287;BME280;37364;46.974;18.916;2023-02-15T11:47:59;152267.38;;;7.62;100.00
51287;BME280;37364;46.974;18.916;2023-02-15T11:50:32;152186.03;;;7.29;100.00
51287;BME280;37364;46.974;18.916;2023-02-15T11:53:06;152241.56;;;7.51;100.00
51287;BME280;37364;46.974;18.916;2023-02-15T11:55:43;152297.09;;;7.73;100.00
51287;BME280;37364;46.974;18.916;2023-02-15T11:58:24;152183.41;;;7.28;100.00
51287;BME280;37364;46.974;18.916;2023-02-15T12:00:59;152201.53;;;7.36;100.00
51287;BME280;37364;46.974;18.916;2023-02-15T12:03:42;152251.88;;;7.56;100.00
51287;BME280;37364;46.974;18.916;2023-02-15T12:06:19;152317.75;;;7.82;100.00
51287;BME280;37364;46.974;18.916;2023-02-15T12:09:03;152220.91;;;7.43;100.00
51287;BME280;37364;46.974;18.916;2023-02-15T12:11:39;152268.66;;;7.62;100.00
51287;BME280;37364;46.974;18.916;2023-02-15T12:14:12;152228.63;;;7.46;100.00
51287;BME280;37364;46.974;18.916;2023-02-15T12:16:46;152282.88;;;7.68;100.00
51287;BME280;37364;46.974;18.916;2023-02-15T12:19:29;152321.66;;;7.83;100.00
51287;BME280;37364;46.974;18.916;2023-02-15T12:22:03;152339.75;;;7.90;100.00
51287;BME280;37364;46.974;18.916;2023-02-15T12:24:44;152290.66;;;7.71;100.00
51287;BME280;37364;46.974;18.916;2023-02-15T12:27:19;152343.66;;;7.92;100.00
51287;BME280;37364;46.974;18.916;2023-02-15T12:29:53;152337.16;;;7.89;100.00
51287;BME280;37364;46.974;18.916;2023-02-15T12:32:31;152308.75;;;7.78;100.00
51287;BME280;37364;46.974;18.916;2023-02-15T12:35:08;152304.88;;;7.77;100.00
51287;BME280;37364;46.974;18.916;2023-02-15T12:37:52;152284.22;;;7.68;100.00
51287;BME280;37364;46.974;18.916;2023-02-15T12:40:25;152277.72;;;7.66;100.00
51287;BME280;37364;46.974;18.916;2023-02-15T12:43:00;152263.50;;;7.60;100.00
51287;BME280;37364;46.974;18.916;2023-02-15T12:45:37;152298.38;;;7.74;100.00
51287;BME280;37364;46.974;18.916;2023-02-15T12:48:13;152308.75;;;7.78;100.00
51287;BME280;37364;46.974;18.916;2023-02-15T12:50:46;152324.25;;;7.84;100.00
51287;BME280;37364;46.974;18.916;2023-02-15T12:53:22;152335.88;;;7.89;100.00
51287;BME280;37364;46.974;18.916;2023-02-15T12:55:54;152339.75;;;7.90;100.00
51287;BME280;37364;46.974;18.916;2023-02-15T12:58:29;152372.03;;;8.03;100.00
51287;BME280;37364;46.974;18.916;2023-02-15T13:01:10;152329.44;;;7.86;100.00
51287;BME280;37364;46.974;18.916;2023-02-15T13:03:55;152307.44;;;7.78;100.00
51287;BME280;37364;46.974;18.916;2023-02-15T13:06:30;152313.94;;;7.80;100.00
51287;BME280;37364;46.974;18.916;2023-02-15T13:09:07;152289.38;;;7.70;100.00
51287;BME280;37364;46.974;18.916;2023-02-15T13:11:45;152312.59;;;7.80;100.00
51287;BME280;37364;46.974;18.916;2023-02-15T13:14:21;152291.94;;;7.71;100.00
51287;BME280;37364;46.974;18.916;2023-02-15T13:16:56;152306.16;;;7.77;100.00
51287;BME280;37364;46.974;18.916;2023-02-15T13:19:33;152297.09;;;7.73;100.00
51287;BME280;37364;46.974;18.916;2023-02-15T13:22:09;152291.94;;;7.71;100.00
51287;BME280;37364;46.974;18.916;2023-02-15T13:24:43;152294.53;;;7.72;100.00
51287;BME280;37364;46.974;18.916;2023-02-15T13:27:18;152301.00;;;7.75;100.00
51287;BME280;37364;46.974;18.916;2023-02-15T13:30:16;152313.94;;;7.80;100.00
51287;BME280;37364;46.974;18.916;2023-02-15T13:32:54;152268.66;;;7.62;100.00